TVSA

Argyle Airport

Argyle, Saint Vincent and the Grenadines
TAF TVSA 210500Z 2106/2206 07014KT 9999 SCT018 PROB40 TEMPO 2108/2116 5000 SHRA BKN014 BKN035
Issued Valid From Valid To
Jun-21 @ 05:00 UTC
(5 hours ago)
Jun-21 @ 06:00 UTC
(4 hours ago)
Jun-22 @ 06:00 UTC
(in 20 hours)
Jun-21 @ 06:00 to Jun-22 @ 06:00
TAF TVSA 210500Z 2106/2206 07014KT 9999 SCT018
Wind Visibility Clouds
70° at 14 knots 10,000+ meters
  • Scattered at 1,800' AGL
Temporary  (Probability 40%) Jun-21 @ 08:00 to Jun-21 @ 16:00
PROB40 TEMPO 2108/2116 5000 SHRA BKN014 BKN035
Visibility Clouds Conditions
5,005 meters
  • Broken at 1,400' AGL
  • Broken at 3,500' AGL
  • Rain
TAF TVSA 210500Z 2106/2206 07014KT 9999 SCT018 PROB40 TEMPO 2108/2116 5000 SHRA BKN014 BKN035
Issued Jun-21 @ 05:00 UTC
(5 hours ago)
Valid From Jun-21 @ 06:00 UTC
(4 hours ago)
Valid To Jun-22 @ 06:00 UTC
(in 20 hours)
Jun-21 @ 06:00 - Jun-22 @ 06:00
Wind Visibility
70° at 14 knots 10,000+ meters
Clouds
  • Scattered at 1,800' AGL
Probability 40% Temporary Jun-21 @ 08:00 - Jun-21 @ 16:00
Clouds
  • Broken at 1,400' AGL
  • Broken at 3,500' AGL
Conditions
  • Rain